Time;durP1;ratioP1;P1;durP2;ratioP2;P2;SDS_P1;SDS_P2;PMS_P1;PMS_P2;Temp;Humidity;BMP_temperature;BMP_pressure;BME280_temperature;BME280_humidity;BME280_pressure;Samples;Min_cycle;Max_cycle;Signal;HPM_P1;HPM_P2
2022/01/27 00:01:37;;;;;;;51.80;25.02;;;;;;;1.56;100.00;101934.97;5054682;28;20036;-72
2022/01/27 00:04:32;;;;;;;50.33;25.13;;;;;;;1.54;100.00;101939.16;5054082;28;20505;-72
2022/01/27 00:07:18;;;;;;;49.47;24.10;;;;;;;1.58;100.00;101936.78;5053170;28;20029;-72
2022/01/27 00:12:55;;;;;;;51.83;24.42;;;;;;;1.71;100.00;101935.50;5056010;28;20075;-72
2022/01/27 00:15:44;;;;;;;52.78;25.98;;;;;;;1.63;100.00;101943.00;5053603;28;20048;-73
2022/01/27 00:18:30;;;;;;;50.33;25.15;;;;;;;1.75;100.00;101947.72;5055378;28;20044;-72
2022/01/27 00:21:19;;;;;;;56.05;25.80;;;;;;;1.87;100.00;101948.19;5040315;28;20471;-72
2022/01/27 00:24:06;;;;;;;53.00;26.05;;;;;;;1.88;100.00;101942.22;5041268;28;20043;-72
2022/01/27 00:26:53;;;;;;;55.10;25.25;;;;;;;1.93;100.00;101938.94;5040775;28;20048;-72
2022/01/27 00:41:34;;;;;;;51.70;25.15;;;;;;;2.32;100.00;101934.31;5880273;23;21192;-72
2022/01/27 00:44:19;;;;;;;48.30;23.80;;;;;;;2.24;100.00;101936.63;4991425;28;20122;-72
2022/01/27 00:47:05;;;;;;;49.33;24.65;;;;;;;2.19;100.00;101933.03;4977296;28;20488;-72
2022/01/27 00:49:51;;;;;;;50.22;24.80;;;;;;;1.82;100.00;101926.47;4977966;28;20077;-73
2022/01/27 00:52:44;;;;;;;50.10;24.40;;;;;;;1.85;100.00;101929.16;4981359;28;20026;-72
2022/01/27 00:55:37;;;;;;;49.33;24.50;;;;;;;1.97;100.00;101925.31;4981698;28;20401;-73
2022/01/27 00:59:02;;;;;;;50.22;23.98;;;;;;;2.10;100.00;101926.63;4979875;28;20030;-73
2022/01/27 01:01:40;;;;;;;50.72;24.38;;;;;;;2.15;100.00;101923.41;4994834;28;20459;-73
2022/01/27 01:04:31;;;;;;;50.25;24.27;;;;;;;2.14;100.00;101928.50;4993051;28;20417;-73
2022/01/27 01:07:19;;;;;;;48.60;24.52;;;;;;;1.67;100.00;101924.19;4993094;28;20022;-72
2022/01/27 01:11:22;;;;;;;49.65;23.40;;;;;;;1.60;100.00;101929.94;4994555;28;20419;-72
2022/01/27 01:32:48;;;;;;;53.03;23.67;;;;;;;1.72;100.00;101926.97;4978486;28;20062;-72
2022/01/27 01:35:35;;;;;;;46.63;21.73;;;;;;;1.70;100.00;101919.16;4978013;28;20089;-73
2022/01/27 01:38:26;;;;;;;52.22;23.98;;;;;;;1.62;100.00;101917.09;4977418;28;20026;-72
2022/01/27 01:41:12;;;;;;;46.22;22.45;;;;;;;1.56;100.00;101924.63;4978529;28;20023;-72
2022/01/27 01:43:58;;;;;;;49.25;23.30;;;;;;;1.43;100.00;101920.69;4978074;28;20027;-72
2022/01/27 01:46:44;;;;;;;49.33;22.95;;;;;;;1.66;100.00;101927.63;4965670;28;20375;-73
2022/01/27 01:49:30;;;;;;;48.70;23.35;;;;;;;1.88;100.00;101918.97;4978606;28;20035;-73
2022/01/27 01:52:16;;;;;;;53.63;24.50;;;;;;;1.62;100.00;101918.00;4977776;28;20034;-71
2022/01/27 01:55:03;;;;;;;46.60;22.65;;;;;;;1.79;100.00;101918.59;4978778;28;20045;-72
2022/01/27 01:57:51;;;;;;;46.33;23.42;;;;;;;1.37;100.00;101915.28;4977345;28;20046;-72
2022/01/27 02:00:36;;;;;;;57.30;25.20;;;;;;;1.35;100.00;101923.78;4977573;28;20447;-73
2022/01/27 02:03:22;;;;;;;55.85;25.10;;;;;;;1.31;100.00;101925.38;4977731;28;20026;-71
2022/01/27 02:20:39;;;;;;;54.65;24.48;;;;;;;1.62;100.00;101907.66;4977851;28;20116;-72
2022/01/27 02:23:25;;;;;;;50.45;23.63;;;;;;;1.24;100.00;101904.47;4862890;29;20042;-72
2022/01/27 02:26:11;;;;;;;52.85;23.80;;;;;;;1.53;100.00;101904.72;4883056;29;20461;-72
2022/01/27 02:28:57;;;;;;;51.97;24.65;;;;;;;1.71;100.00;101900.25;4936829;29;20040;-72
2022/01/27 02:31:43;;;;;;;52.63;23.88;;;;;;;1.74;100.00;101909.81;4937646;29;20148;-72
2022/01/27 02:34:32;;;;;;;49.70;24.63;;;;;;;1.52;100.00;101913.28;4956041;29;20096;-72
2022/01/27 02:37:18;;;;;;;48.38;23.67;;;;;;;1.61;100.00;101905.03;4956007;28;20039;-72
2022/01/27 02:40:05;;;;;;;54.65;25.13;;;;;;;1.15;100.00;101914.41;4955676;29;20448;-72
2022/01/27 02:42:50;;;;;;;53.28;25.08;;;;;;;1.07;100.00;101913.22;4956076;29;20110;-72
2022/01/27 02:50:46;;;;;;;55.10;25.50;;;;;;;1.10;100.00;101916.81;6011533;23;20045;-72
2022/01/27 02:53:32;;;;;;;56.90;26.27;;;;;;;1.34;100.00;101914.28;4957161;29;20046;-72
2022/01/27 02:56:19;;;;;;;54.72;26.10;;;;;;;1.37;100.00;101917.00;4957459;28;20039;-71
2022/01/27 02:59:04;;;;;;;54.17;26.30;;;;;;;1.27;100.00;101920.03;4957925;29;20054;-71
2022/01/27 03:01:51;;;;;;;55.10;26.30;;;;;;;1.48;100.00;101914.00;4957589;29;20121;-72
2022/01/27 03:04:37;;;;;;;59.95;27.88;;;;;;;1.15;100.00;101925.63;4956973;29;20043;-72
2022/01/27 03:07:23;;;;;;;56.72;27.10;;;;;;;1.30;100.00;101909.84;4957279;28;20042;-71
2022/01/27 03:10:09;;;;;;;64.07;30.50;;;;;;;1.32;100.00;101919.41;4957561;29;20035;-71
2022/01/27 03:12:59;;;;;;;61.65;29.50;;;;;;;1.28;100.00;101916.66;4957574;29;20027;-71
2022/01/27 03:15:45;;;;;;;64.38;28.63;;;;;;;1.19;100.00;101917.16;4956656;28;20034;-72
2022/01/27 03:18:34;;;;;;;58.80;28.40;;;;;;;1.36;100.00;101920.41;4957340;29;20118;-72
2022/01/27 03:21:19;;;;;;;62.30;29.17;;;;;;;1.35;100.00;101916.03;4956432;29;20027;-71
2022/01/27 03:24:06;;;;;;;62.45;29.17;;;;;;;1.36;100.00;101916.09;4944513;29;20027;-72
2022/01/27 03:26:54;;;;;;;59.75;28.40;;;;;;;1.58;100.00;101922.97;4957854;28;20039;-71
2022/01/27 03:36:02;;;;;;;66.22;28.35;;;;;;;1.06;100.00;101929.53;5350244;23;20051;-72
2022/01/27 03:38:48;;;;;;;59.70;29.10;;;;;;;1.23;100.00;101931.94;4976165;28;20459;-73
2022/01/27 03:41:35;;;;;;;59.45;27.73;;;;;;;1.22;100.00;101930.19;4974941;28;20034;-73
2022/01/27 03:44:22;;;;;;;63.83;29.50;;;;;;;1.31;100.00;101922.81;4962905;28;20363;-72
2022/01/27 03:47:08;;;;;;;69.15;30.85;;;;;;;1.13;100.00;101931.53;4975815;28;20101;-73
2022/01/27 03:49:54;;;;;;;65.60;29.88;;;;;;;1.17;100.00;101934.31;4963409;28;20034;-73
2022/01/27 03:52:39;;;;;;;63.53;29.48;;;;;;;1.05;100.00;101925.19;4961881;28;20030;-72
2022/01/27 04:00:36;;;;;;;61.58;28.08;;;;;;;0.90;100.00;101932.31;5206956;23;20506;-72
2022/01/27 04:03:23;;;;;;;61.45;28.02;;;;;;;0.78;100.00;101932.69;4976379;28;20026;-72
2022/01/27 04:06:09;;;;;;;68.30;29.17;;;;;;;0.70;100.00;101933.19;4962988;28;20203;-72
2022/01/27 04:08:55;;;;;;;59.97;27.80;;;;;;;0.59;100.00;101926.75;4975158;28;20035;-72
2022/01/27 04:11:41;;;;;;;64.75;28.08;;;;;;;0.70;100.00;101939.25;4975386;28;20023;-72
2022/01/27 04:14:27;;;;;;;62.80;28.45;;;;;;;0.52;100.00;101938.47;4975437;28;20058;-72
2022/01/27 04:17:13;;;;;;;57.70;27.88;;;;;;;0.56;100.00;101924.03;4975362;28;20027;-72
2022/01/27 04:23:41;;;;;;;63.47;28.50;;;;;;;0.44;100.00;101931.25;4984287;28;20030;-71
2022/01/27 04:26:36;;;;;;;61.30;28.67;;;;;;;0.51;100.00;101918.66;4975117;28;20474;-72
2022/01/27 04:29:23;;;;;;;64.07;28.88;;;;;;;0.48;100.00;101918.53;4974337;28;20113;-73
2022/01/27 04:32:11;;;;;;;61.10;28.23;;;;;;;0.30;100.00;101912.59;4975495;28;20451;-72
2022/01/27 04:35:02;;;;;;;73.68;33.10;;;;;;;0.43;100.00;101898.56;4961056;28;20121;-72
2022/01/27 04:37:59;;;;;;;68.03;33.45;;;;;;;0.29;100.00;101903.13;4961632;28;20019;-72
2022/01/27 04:47:27;;;;;;;69.60;31.95;;;;;;;0.09;100.00;101933.16;5081460;23;20074;-72
2022/01/27 04:50:12;;;;;;;67.88;28.55;;;;;;;0.29;100.00;101931.47;4961026;28;20026;-72
2022/01/27 04:53:00;;;;;;;61.78;28.88;;;;;;;0.27;100.00;101937.38;4961794;28;20092;-72
2022/01/27 04:55:46;;;;;;;62.20;27.92;;;;;;;0.20;100.00;101938.78;4974402;28;20073;-72
2022/01/27 04:58:34;;;;;;;58.40;27.30;;;;;;;0.07;100.00;101936.50;4961616;28;20486;-73
2022/01/27 05:01:25;;;;;;;57.17;27.38;;;;;;;0.12;100.00;101940.16;4973814;28;20035;-71
2022/01/27 05:04:16;;;;;;;75.55;34.03;;;;;;;0.26;100.00;101938.16;4974740;28;20073;-71
2022/01/27 05:07:02;;;;;;;67.45;30.42;;;;;;;0.21;100.00;101940.56;4973860;28;20484;-71
2022/01/27 05:09:56;;;;;;;63.78;27.40;;;;;;;0.17;100.00;101934.38;4973711;28;20038;-72
2022/01/27 05:13:15;;;;;;;61.65;29.38;;;;;;;0.37;100.00;101927.53;4975030;28;20023;-71
2022/01/27 05:16:02;;;;;;;63.15;28.90;;;;;;;0.16;100.00;101936.03;4974699;28;20367;-70
2022/01/27 05:18:48;;;;;;;67.95;30.98;;;;;;;0.42;100.00;101945.75;4973936;28;20591;-70
2022/01/27 05:21:34;;;;;;;64.10;30.55;;;;;;;0.37;100.00;101963.63;4973524;28;20031;-71
2022/01/27 05:24:21;;;;;;;66.55;31.85;;;;;;;0.68;100.00;101974.38;4974107;28;20027;-71
2022/01/27 05:27:06;;;;;;;63.13;28.58;;;;;;;0.38;100.00;101985.97;4973523;28;20039;-70
2022/01/27 05:29:52;;;;;;;61.65;28.55;;;;;;;0.61;100.00;101989.53;4974289;28;20049;-72
2022/01/27 05:32:38;;;;;;;54.95;26.35;;;;;;;0.39;100.00;101992.03;4974099;28;20082;-71
2022/01/27 05:35:23;;;;;;;56.15;27.52;;;;;;;0.41;100.00;101993.84;4974623;28;20043;-72
2022/01/27 05:38:09;;;;;;;62.05;29.42;;;;;;;0.56;100.00;101991.91;4973613;28;20150;-72
2022/01/27 05:40:55;;;;;;;60.65;29.63;;;;;;;0.50;100.00;101977.88;4974158;28;20448;-71
2022/01/27 05:43:45;;;;;;;62.80;29.35;;;;;;;0.67;100.00;101982.06;4974430;28;20101;-71
2022/01/27 05:46:30;;;;;;;59.47;29.33;;;;;;;0.77;100.00;101966.16;4960599;28;20039;-70
2022/01/27 05:49:16;;;;;;;61.55;29.58;;;;;;;0.88;100.00;101978.66;4974698;28;20136;-70
2022/01/27 05:52:02;;;;;;;60.17;29.10;;;;;;;0.83;100.00;101982.78;4974391;28;20355;-72
2022/01/27 05:57:47;;;;;;;63.70;31.08;;;;;;;1.19;100.00;101979.09;5430042;23;20058;-71
2022/01/27 06:00:33;;;;;;;60.83;29.63;;;;;;;1.28;100.00;101984.63;4974262;28;20023;-71
2022/01/27 06:03:19;;;;;;;61.88;30.52;;;;;;;1.13;100.00;101989.19;4973824;28;20049;-72
2022/01/27 06:06:05;;;;;;;60.20;29.20;;;;;;;1.17;100.00;101977.28;4977420;28;20121;-70
2022/01/27 06:08:50;;;;;;;62.15;29.52;;;;;;;1.41;100.00;101981.69;4977501;28;20042;-72
2022/01/27 06:11:36;;;;;;;58.58;29.17;;;;;;;1.42;100.00;101990.34;4977744;28;20045;-71
2022/01/27 06:14:23;;;;;;;55.55;29.25;;;;;;;1.68;100.00;101984.50;4977450;28;20057;-71
2022/01/27 06:17:52;;;;;;;57.47;28.52;;;;;;;1.92;100.00;101986.28;4977623;28;20026;-71
2022/01/27 06:20:39;;;;;;;58.70;29.30;;;;;;;1.89;100.00;101990.47;4977244;28;20084;-72
2022/01/27 06:23:25;;;;;;;66.57;30.83;;;;;;;1.96;100.00;101995.03;4977291;28;20027;-71
2022/01/27 06:26:10;;;;;;;58.53;29.45;;;;;;;1.92;100.00;101988.88;4964788;28;20043;-71
2022/01/27 06:32:39;;;;;;;65.28;31.13;;;;;;;2.15;100.00;101988.03;4976859;28;20132;-72
2022/01/27 06:35:24;;;;;;;60.72;30.58;;;;;;;2.09;100.00;101984.34;4977760;28;20109;-72
2022/01/27 06:38:10;;;;;;;60.65;30.00;;;;;;;1.90;100.00;101980.19;4977051;28;20019;-70
2022/01/27 06:40:59;;;;;;;60.20;32.15;;;;;;;1.94;100.00;101976.91;4976762;28;20034;-72
2022/01/27 06:43:45;;;;;;;58.95;31.08;;;;;;;2.19;100.00;101970.91;4964179;28;20140;-71
2022/01/27 06:46:32;;;;;;;62.10;31.15;;;;;;;1.93;100.00;101969.09;4976096;28;20027;-73
2022/01/27 06:49:18;;;;;;;60.90;30.05;;;;;;;1.79;100.00;101970.25;4963044;28;20089;-72
2022/01/27 06:52:05;;;;;;;61.95;30.75;;;;;;;1.99;100.00;101970.19;4977305;28;20119;-73
2022/01/27 06:54:52;;;;;;;60.22;31.63;;;;;;;1.88;100.00;101966.31;4963910;28;20367;-72
2022/01/27 06:57:38;;;;;;;63.25;31.10;;;;;;;2.02;100.00;101966.84;4976677;28;20142;-73
2022/01/27 07:00:23;;;;;;;57.22;29.38;;;;;;;1.87;100.00;101961.09;4976805;28;20457;-73
2022/01/27 07:03:09;;;;;;;54.22;28.30;;;;;;;2.08;100.00;101967.94;4976184;28;20475;-72
2022/01/27 07:05:55;;;;;;;51.72;26.90;;;;;;;2.08;100.00;101974.78;4977508;28;20084;-73
2022/01/27 07:08:40;;;;;;;57.58;29.98;;;;;;;2.17;100.00;101976.00;4976205;28;20041;-72
2022/01/27 07:15:09;;;;;;;56.35;27.10;;;;;;;2.14;100.00;101968.19;4976152;28;20105;-73
2022/01/27 07:17:55;;;;;;;49.90;26.15;;;;;;;2.09;100.00;101974.84;4976015;28;20042;-71
2022/01/27 07:20:41;;;;;;;50.95;27.00;;;;;;;2.41;100.00;101970.84;4977071;28;20027;-72
2022/01/27 07:23:27;;;;;;;52.17;26.55;;;;;;;2.34;100.00;101971.47;4975747;28;20026;-73
2022/01/27 07:26:14;;;;;;;50.30;26.95;;;;;;;2.49;100.00;101970.28;4977649;28;20033;-72
2022/01/27 07:29:00;;;;;;;53.50;28.10;;;;;;;2.47;100.00;101973.66;4962981;28;20404;-73
2022/01/27 07:31:46;;;;;;;50.63;27.05;;;;;;;2.72;100.00;101966.78;4963007;28;20023;-73
2022/01/27 07:34:31;;;;;;;48.63;26.55;;;;;;;2.78;100.00;101968.69;4975876;28;20066;-71
2022/01/27 07:39:52;;;;;;;46.97;25.67;;;;;;;2.57;100.00;101971.44;4956222;29;20465;-73
2022/01/27 07:42:38;;;;;;;46.55;25.10;;;;;;;2.72;100.00;101977.13;4957436;29;20424;-72
2022/01/27 07:45:24;;;;;;;47.00;25.98;;;;;;;2.93;100.00;101980.44;4956343;29;20031;-72
2022/01/27 07:48:10;;;;;;;45.38;25.23;;;;;;;3.09;100.00;101981.84;4976322;28;20037;-72
2022/01/27 07:50:56;;;;;;;46.20;24.80;;;;;;;3.24;100.00;101988.38;4975941;28;20486;-73
2022/01/27 07:53:43;;;;;;;43.58;24.63;;;;;;;3.46;100.00;101977.00;4976624;28;20026;-73
2022/01/27 07:56:29;;;;;;;41.10;24.48;;;;;;;3.68;100.00;101975.09;4976223;28;20122;-72
2022/01/27 08:09:02;;;;;;;40.38;23.60;;;;;;;3.79;100.00;101973.72;5286456;23;20061;-73
2022/01/27 08:11:49;;;;;;;43.20;23.23;;;;;;;3.93;100.00;101985.34;4977011;28;20444;-72
2022/01/27 08:14:34;;;;;;;46.30;23.58;;;;;;;4.28;100.00;101995.03;4976184;28;20034;-73
2022/01/27 08:17:20;;;;;;;44.50;23.17;;;;;;;4.07;100.00;101997.00;4974510;28;20031;-73
2022/01/27 08:20:07;;;;;;;45.80;24.55;;;;;;;4.21;100.00;102000.88;4976636;28;20026;-72
2022/01/27 08:22:54;;;;;;;41.85;24.30;;;;;;;4.25;100.00;101994.94;4976520;28;20026;-72
2022/01/27 08:25:42;;;;;;;39.90;22.48;;;;;;;4.49;100.00;101997.31;4976862;28;20049;-73
2022/01/27 08:32:16;;;;;;;40.25;23.10;;;;;;;4.56;100.00;102005.34;4974824;28;20151;-72
2022/01/27 08:35:01;;;;;;;42.47;23.70;;;;;;;4.65;100.00;102009.88;4975862;28;20031;-72
2022/01/27 08:37:48;;;;;;;42.97;23.40;;;;;;;4.74;100.00;102028.28;4976371;28;20050;-73
2022/01/27 08:40:33;;;;;;;42.05;23.33;;;;;;;4.57;100.00;102024.34;4976362;28;20030;-73
2022/01/27 08:43:19;;;;;;;38.67;23.15;;;;;;;5.16;100.00;102035.47;4976856;28;20085;-73
2022/01/27 08:46:05;;;;;;;39.38;22.48;;;;;;;5.31;100.00;102030.66;4976333;28;20035;-73
2022/01/27 08:48:51;;;;;;;38.03;21.48;;;;;;;5.10;100.00;102027.53;4975403;28;20085;-72
2022/01/27 08:51:37;;;;;;;35.50;21.23;;;;;;;5.02;100.00;102030.75;4974297;28;20031;-73
2022/01/27 08:54:24;;;;;;;38.17;20.98;;;;;;;5.25;100.00;102025.34;4980746;28;20064;-72
2022/01/27 08:57:12;;;;;;;37.20;20.95;;;;;;;5.52;100.00;102026.81;4995279;28;20096;-72
2022/01/27 08:59:57;;;;;;;35.88;20.88;;;;;;;5.09;100.00;102028.38;4995524;28;20109;-72
2022/01/27 09:02:43;;;;;;;35.95;20.40;;;;;;;5.36;100.00;102026.44;4994380;28;20022;-72
2022/01/27 09:05:29;;;;;;;34.60;20.08;;;;;;;5.48;100.00;102018.94;4993905;28;20092;-73
2022/01/27 09:08:15;;;;;;;34.75;19.63;;;;;;;5.54;100.00;102019.97;4994265;28;20076;-73
2022/01/27 09:11:01;;;;;;;35.28;20.20;;;;;;;5.96;100.00;102023.53;4993876;28;20035;-72
2022/01/27 09:13:47;;;;;;;33.92;20.00;;;;;;;5.77;100.00;102021.34;4994344;28;20026;-71
2022/01/27 09:16:34;;;;;;;34.10;20.40;;;;;;;6.12;100.00;102018.72;4993611;28;20034;-72
2022/01/27 09:19:20;;;;;;;29.20;18.60;;;;;;;6.28;100.00;102014.69;4994921;28;20045;-72
2022/01/27 09:22:12;;;;;;;33.88;20.77;;;;;;;6.42;100.00;102005.44;4993031;28;20034;-73
2022/01/27 09:25:05;;;;;;;32.78;19.55;;;;;;;6.62;100.00;102004.97;4994783;28;20030;-73
2022/01/27 09:27:52;;;;;;;30.75;19.35;;;;;;;6.13;100.00;102012.66;4993574;28;20030;-72
2022/01/27 09:30:39;;;;;;;33.83;19.92;;;;;;;5.83;100.00;102014.59;4993766;28;20034;-73
2022/01/27 09:33:25;;;;;;;30.38;18.77;;;;;;;6.15;100.00;102016.16;4979259;28;20038;-72
2022/01/27 09:38:46;;;;;;;29.00;17.63;;;;;;;5.88;100.00;102004.28;5268256;23;20066;-72
2022/01/27 09:41:37;;;;;;;28.02;16.75;;;;;;;5.58;100.00;102003.59;4978252;28;20027;-73
2022/01/27 09:44:31;;;;;;;28.23;17.83;;;;;;;5.73;100.00;101997.00;4965462;28;20348;-71
2022/01/27 09:47:17;;;;;;;28.67;17.23;;;;;;;5.20;100.00;101990.53;4965421;28;20041;-71
2022/01/27 09:50:09;;;;;;;26.48;16.13;;;;;;;5.26;100.00;101984.63;4965198;28;20452;-72
2022/01/27 09:53:36;;;;;;;28.48;17.23;;;;;;;5.56;100.00;101976.66;4964063;28;20031;-72
2022/01/27 09:56:23;;;;;;;26.35;15.82;;;;;;;5.65;100.00;101969.06;4965075;28;20034;-73
2022/01/27 09:59:09;;;;;;;25.85;15.77;;;;;;;5.71;100.00;101979.63;4964172;28;20419;-72
2022/01/27 10:02:07;;;;;;;25.42;15.30;;;;;;;6.12;100.00;101973.59;4978497;28;20130;-73
2022/01/27 10:04:58;;;;;;;23.90;15.15;;;;;;;6.38;100.00;101962.84;4964676;28;20030;-74
2022/01/27 10:07:45;;;;;;;26.35;15.77;;;;;;;6.28;100.00;101954.84;4964431;28;20046;-74
2022/01/27 10:10:43;;;;;;;25.50;14.25;;;;;;;6.32;100.00;101961.88;4977501;28;20096;-72
2022/01/27 10:13:31;;;;;;;22.13;13.98;;;;;;;6.38;100.00;101955.06;4977066;28;20333;-74
2022/01/27 10:16:35;;;;;;;22.27;14.30;;;;;;;6.46;100.00;101952.56;4977210;28;20544;-73
2022/01/27 10:19:25;;;;;;;21.27;13.70;;;;;;;6.94;100.00;101949.13;4977422;28;20035;-73
2022/01/27 10:22:15;;;;;;;23.25;14.35;;;;;;;6.46;100.00;101957.78;4963688;28;20039;-72
2022/01/27 10:25:09;;;;;;;25.38;16.92;;;;;;;6.66;100.00;101964.25;4964581;28;20056;-74
2022/01/27 10:28:08;;;;;;;21.10;14.38;;;;;;;6.74;100.00;101945.31;4976654;28;20037;-73
2022/01/27 10:31:23;;;;;;;22.90;14.30;;;;;;;6.79;100.00;101938.44;4965141;28;20047;-73
2022/01/27 10:34:10;;;;;;;22.35;13.93;;;;;;;6.94;100.00;101927.41;4978257;28;20031;-73
2022/01/27 10:36:56;;;;;;;22.73;14.48;;;;;;;6.65;100.00;101926.03;4977068;28;20057;-72
2022/01/27 10:39:46;;;;;;;24.50;15.23;;;;;;;6.90;100.00;101917.78;4976877;28;20051;-72
2022/01/27 10:42:38;;;;;;;23.85;15.23;;;;;;;7.05;100.00;101910.22;4959241;28;20045;-76
2022/01/27 10:45:23;;;;;;;25.45;15.30;;;;;;;7.35;100.00;101919.38;4958139;28;20027;-72
2022/01/27 10:48:24;;;;;;;21.02;13.77;;;;;;;7.35;100.00;101914.16;4978748;28;20470;-73
2022/01/27 10:51:19;;;;;;;23.58;14.40;;;;;;;7.23;100.00;101911.38;4963976;28;20030;-73
2022/01/27 10:54:06;;;;;;;22.02;14.05;;;;;;;7.31;100.00;101908.91;4977825;28;20440;-73
2022/01/27 11:02:23;;;;;;;24.90;14.48;;;;;;;7.72;100.00;101892.94;5282731;23;20047;-72
2022/01/27 11:05:19;;;;;;;22.42;13.95;;;;;;;7.70;100.00;101892.06;4978008;28;20066;-76
2022/01/27 11:08:05;;;;;;;25.65;13.80;;;;;;;7.71;100.00;101882.47;4946662;29;20035;-73
2022/01/27 11:10:51;;;;;;;21.25;12.95;;;;;;;7.56;100.00;101882.31;4957298;29;20030;-74
2022/01/27 11:13:37;;;;;;;21.92;13.80;;;;;;;7.71;100.00;101885.97;4958586;29;20041;-74
2022/01/27 11:16:33;;;;;;;20.73;12.85;;;;;;;7.27;100.00;101884.50;4956692;28;20042;-73
2022/01/27 11:32:13;;;;;;;19.92;12.77;;;;;;;7.93;94.29;101859.31;4957826;29;20038;-71
2022/01/27 11:34:59;;;;;;;21.00;12.20;;;;;;;7.75;95.67;101852.97;4972505;29;20155;-72
2022/01/27 11:37:50;;;;;;;21.02;12.75;;;;;;;7.83;96.31;101846.09;4959154;29;20103;-74
2022/01/27 11:40:37;;;;;;;25.98;13.63;;;;;;;8.11;95.41;101842.94;4956704;29;20448;-74
2022/01/27 11:43:33;;;;;;;22.92;14.23;;;;;;;8.41;91.78;101843.28;4957208;29;20066;-74
2022/01/27 11:46:22;;;;;;;24.15;12.50;;;;;;;8.22;89.84;101841.34;4957408;28;20028;-73
2022/01/27 11:55:24;;;;;;;20.27;12.43;;;;;;;7.88;91.63;101827.03;5744622;23;20081;-73
2022/01/27 12:09:38;;;;;;;19.10;12.35;;;;;;;9.60;82.61;101817.06;5395890;23;20066;-73
2022/01/27 12:12:30;;;;;;;23.10;13.63;;;;;;;9.15;82.84;101806.41;4977057;28;20325;-74
2022/01/27 12:15:15;;;;;;;24.42;13.90;;;;;;;9.18;83.32;101809.03;4975867;28;20129;-73
2022/01/27 12:18:38;;;;;;;24.17;14.10;;;;;;;8.96;85.95;101809.75;4956016;29;20038;-74
2022/01/27 12:21:44;;;;;;;23.60;13.30;;;;;;;9.04;84.35;101801.94;4950451;29;20050;-74
2022/01/27 12:24:32;;;;;;;21.90;13.75;;;;;;;9.43;82.78;101803.06;4956495;29;20445;-73
2022/01/27 12:27:18;;;;;;;21.20;13.25;;;;;;;9.31;81.40;101802.13;4957079;28;20035;-74
2022/01/27 12:30:07;;;;;;;21.30;13.10;;;;;;;9.14;81.82;101799.44;4957210;29;20027;-73
2022/01/27 12:32:56;;;;;;;21.00;13.18;;;;;;;9.52;78.57;101800.47;4956157;29;20094;-74
2022/01/27 12:35:51;;;;;;;19.77;12.40;;;;;;;9.48;79.50;101789.97;4956906;28;20046;-73
2022/01/27 12:38:38;;;;;;;20.33;12.70;;;;;;;9.34;79.39;101789.06;4956784;29;20031;-74
2022/01/27 12:41:24;;;;;;;32.55;13.65;;;;;;;9.22;81.22;101786.38;4957024;29;20046;-73
2022/01/27 12:44:10;;;;;;;21.20;11.95;;;;;;;9.38;75.52;101788.22;4955742;29;20475;-74
2022/01/27 12:47:03;;;;;;;18.27;10.70;;;;;;;9.43;73.80;101779.50;4941946;29;20089;-74
2022/01/27 12:50:03;;;;;;;19.17;11.10;;;;;;;9.72;71.20;101772.63;4929798;29;20046;-73
2022/01/27 12:52:53;;;;;;;21.52;11.20;;;;;;;9.27;72.31;101776.81;4955921;29;20098;-74
2022/01/27 12:55:42;;;;;;;17.38;10.55;;;;;;;9.25;71.26;101776.81;4956997;28;20062;-75
2022/01/27 12:58:31;;;;;;;17.15;9.95;;;;;;;9.29;71.24;101767.25;4955116;29;20063;-73
2022/01/27 13:01:18;;;;;;;15.68;9.57;;;;;;;8.99;72.32;101773.19;4943307;28;20113;-73
2022/01/27 13:04:03;;;;;;;15.93;10.25;;;;;;;9.08;71.97;101765.41;4955139;29;20027;-73
2022/01/27 13:06:56;;;;;;;17.10;10.50;;;;;;;9.01;72.01;101768.84;4955103;28;20031;-72
2022/01/27 13:09:44;;;;;;;19.27;11.32;;;;;;;9.10;72.90;101758.44;4942330;28;20126;-72
2022/01/27 13:15:27;;;;;;;20.63;11.10;;;;;;;9.41;71.25;101762.06;4955118;28;20041;-73
2022/01/27 13:18:20;;;;;;;19.85;11.90;;;;;;;9.52;71.11;101760.34;4955687;29;20071;-73
2022/01/27 13:21:33;;;;;;;17.40;10.65;;;;;;;9.27;70.63;101758.50;4942673;29;20035;-73
2022/01/27 13:24:19;;;;;;;19.63;10.73;;;;;;;8.86;71.98;101746.97;4955496;29;20560;-72
2022/01/27 13:37:28;;;;;;;16.02;9.80;;;;;;;8.77;70.80;101741.69;5188269;23;20058;-72
2022/01/27 13:43:35;;;;;;;23.27;9.70;;;;;;;8.69;69.97;101746.00;4974306;28;20034;-73
2022/01/27 13:46:33;;;;;;;14.98;9.52;;;;;;;8.72;71.08;101757.34;4974437;28;20101;-73
2022/01/27 13:49:23;;;;;;;14.95;9.32;;;;;;;8.51;71.20;101756.31;4974575;28;20033;-73
2022/01/27 13:52:15;;;;;;;20.95;10.00;;;;;;;8.53;70.64;101754.59;4960315;28;20080;-73
2022/01/27 13:55:07;;;;;;;16.38;9.73;;;;;;;8.48;71.67;101751.09;4962301;28;20472;-72
2022/01/27 14:14:51;;;;;;;21.77;10.38;;;;;;;8.23;73.62;101757.84;5959810;23;20013;-72
2022/01/27 14:17:37;;;;;;;18.70;9.82;;;;;;;8.34;72.95;101768.38;4974065;28;20034;-71
2022/01/27 14:20:23;;;;;;;19.33;10.77;;;;;;;8.49;72.47;101761.53;4973593;28;20031;-72
2022/01/27 14:23:20;;;;;;;13.77;8.90;;;;;;;8.47;72.49;101760.66;4974177;28;20109;-72
2022/01/27 14:26:07;;;;;;;16.30;9.98;;;;;;;8.41;73.34;101760.59;4975925;28;20101;-72
2022/01/27 14:28:59;;;;;;;18.83;10.85;;;;;;;8.36;73.82;101766.66;4977588;28;20022;-71
2022/01/27 14:31:51;;;;;;;16.50;10.13;;;;;;;8.30;74.64;101766.59;4976782;28;20035;-71
2022/01/27 14:34:38;;;;;;;15.18;9.50;;;;;;;8.35;72.83;101768.38;4977060;28;20471;-72
2022/01/27 14:37:24;;;;;;;15.93;9.43;;;;;;;8.47;71.36;101773.72;4977054;28;20026;-72
2022/01/27 14:40:13;;;;;;;17.77;9.52;;;;;;;8.41;72.63;101762.34;4976646;28;20372;-72
2022/01/27 14:43:01;;;;;;;16.33;9.82;;;;;;;8.46;71.31;101753.69;4976533;28;20031;-72
2022/01/27 14:45:47;;;;;;;18.95;10.25;;;;;;;8.23;72.71;101754.34;4976529;28;20455;-72
2022/01/27 14:48:37;;;;;;;18.50;9.98;;;;;;;7.98;73.74;101758.44;4977167;28;20035;-73
2022/01/27 14:51:25;;;;;;;15.93;9.82;;;;;;;7.88;74.85;101758.34;4976652;28;20030;-73
2022/01/27 14:54:10;;;;;;;15.55;9.93;;;;;;;7.98;73.78;101755.84;4977919;28;20026;-71
2022/01/27 14:56:57;;;;;;;17.60;9.85;;;;;;;7.98;73.28;101763.66;4976927;28;20038;-73
2022/01/27 14:59:43;;;;;;;19.42;10.30;;;;;;;8.03;71.62;101753.25;4976681;28;20046;-72
2022/01/27 15:02:29;;;;;;;17.13;10.43;;;;;;;7.90;71.71;101752.28;4976447;28;20022;-71
2022/01/27 15:05:15;;;;;;;19.92;11.55;;;;;;;7.94;71.13;101755.78;4977145;28;20102;-71
2022/01/27 15:08:01;;;;;;;27.55;12.35;;;;;;;7.71;70.29;101750.34;4977278;28;20034;-72
2022/01/27 15:10:47;;;;;;;22.80;12.98;;;;;;;7.66;71.96;101748.53;4965854;28;20058;-70
2022/01/27 15:13:40;;;;;;;22.20;13.27;;;;;;;7.57;72.68;101741.50;4964941;28;20030;-72
2022/01/27 15:19:36;;;;;;;25.45;13.57;;;;;;;7.60;73.16;101764.13;4976529;28;20436;-72
2022/01/27 15:22:25;;;;;;;23.73;13.35;;;;;;;7.37;74.05;101765.59;4975328;28;20113;-73
2022/01/27 15:25:13;;;;;;;24.33;13.50;;;;;;;7.36;74.17;101763.84;4963237;28;20023;-72
2022/01/27 15:27:59;;;;;;;25.20;12.68;;;;;;;7.27;74.66;101764.59;4976104;28;20030;-73
2022/01/27 15:30:45;;;;;;;23.13;12.82;;;;;;;7.37;73.77;101760.38;4976864;28;20101;-73
2022/01/27 15:33:31;;;;;;;21.17;13.02;;;;;;;7.13;75.84;101755.75;4975866;28;20069;-72
2022/01/27 15:48:12;;;;;;;26.77;15.85;;;;;;;6.89;82.18;101745.00;4986735;28;20058;-74
2022/01/27 15:50:58;;;;;;;26.38;15.30;;;;;;;6.79;82.65;101750.91;4994805;28;20109;-73
2022/01/27 15:53:44;;;;;;;30.17;17.00;;;;;;;6.84;83.99;101748.38;4994485;28;20081;-72
2022/01/27 15:56:37;;;;;;;33.95;18.98;;;;;;;6.73;85.09;101750.84;4995578;28;20030;-73
2022/01/27 15:59:26;;;;;;;33.05;19.08;;;;;;;6.62;87.13;101756.72;4996053;28;20027;-73